sensor_id;sensor_type;location;lat;lon;timestamp;temperature;humidity
36710;DHT22;22694;51.040;3.684;2023-02-26T00:02:07;13.20;69.80
36710;DHT22;22694;51.040;3.684;2023-02-26T00:04:35;13.20;70.00
36710;DHT22;22694;51.040;3.684;2023-02-26T00:07:02;13.10;69.90
36710;DHT22;22694;51.040;3.684;2023-02-26T00:09:29;13.10;69.90
36710;DHT22;22694;51.040;3.684;2023-02-26T00:11:55;13.00;69.90
36710;DHT22;22694;51.040;3.684;2023-02-26T00:14:21;13.00;69.80
36710;DHT22;22694;51.040;3.684;2023-02-26T00:19:37;12.90;69.90
36710;DHT22;22694;51.040;3.684;2023-02-26T00:22:03;12.80;70.10
36710;DHT22;22694;51.040;3.684;2023-02-26T00:24:29;12.80;70.30
36710;DHT22;22694;51.040;3.684;2023-02-26T00:26:54;12.80;71.10
36710;DHT22;22694;51.040;3.684;2023-02-26T00:29:20;12.80;71.40
36710;DHT22;22694;51.040;3.684;2023-02-26T00:31:46;12.70;70.90
36710;DHT22;22694;51.040;3.684;2023-02-26T00:34:12;12.70;70.70
36710;DHT22;22694;51.040;3.684;2023-02-26T00:37:02;12.70;70.50
36710;DHT22;22694;51.040;3.684;2023-02-26T00:42:11;12.60;70.40
36710;DHT22;22694;51.040;3.684;2023-02-26T00:44:37;12.50;70.30
36710;DHT22;22694;51.040;3.684;2023-02-26T00:47:12;12.50;70.30
36710;DHT22;22694;51.040;3.684;2023-02-26T00:52:31;12.40;70.30
36710;DHT22;22694;51.040;3.684;2023-02-26T00:55:01;12.40;70.30
36710;DHT22;22694;51.040;3.684;2023-02-26T00:57:26;12.30;70.30
36710;DHT22;22694;51.040;3.684;2023-02-26T00:59:52;12.30;70.40
36710;DHT22;22694;51.040;3.684;2023-02-26T01:02:17;12.20;70.50
36710;DHT22;22694;51.040;3.684;2023-02-26T01:04:43;12.20;70.40
36710;DHT22;22694;51.040;3.684;2023-02-26T01:07:10;12.10;70.50
36710;DHT22;22694;51.040;3.684;2023-02-26T01:09:36;12.10;70.60
36710;DHT22;22694;51.040;3.684;2023-02-26T01:12:10;12.10;70.50
36710;DHT22;22694;51.040;3.684;2023-02-26T01:14:38;12.00;70.60
36710;DHT22;22694;51.040;3.684;2023-02-26T01:17:22;12.00;70.40
36710;DHT22;22694;51.040;3.684;2023-02-26T01:20:03;11.90;70.50
36710;DHT22;22694;51.040;3.684;2023-02-26T01:22:54;11.90;70.60
36710;DHT22;22694;51.040;3.684;2023-02-26T01:25:29;11.80;70.40
36710;DHT22;22694;51.040;3.684;2023-02-26T01:27:59;11.80;70.50
36710;DHT22;22694;51.040;3.684;2023-02-26T01:30:25;11.80;70.80
36710;DHT22;22694;51.040;3.684;2023-02-26T01:38:41;11.70;71.00
36710;DHT22;22694;51.040;3.684;2023-02-26T01:41:26;11.60;71.10
36710;DHT22;22694;51.040;3.684;2023-02-26T01:49:25;11.50;71.40
36710;DHT22;22694;51.040;3.684;2023-02-26T01:51:56;11.50;71.30
36710;DHT22;22694;51.040;3.684;2023-02-26T01:54:31;11.50;71.40
36710;DHT22;22694;51.040;3.684;2023-02-26T01:57:16;11.50;71.50
36710;DHT22;22694;51.040;3.684;2023-02-26T01:59:45;11.50;71.60
36710;DHT22;22694;51.040;3.684;2023-02-26T02:02:15;11.40;71.70
36710;DHT22;22694;51.040;3.684;2023-02-26T02:04:41;11.40;71.80
36710;DHT22;22694;51.040;3.684;2023-02-26T02:07:07;11.40;71.90
36710;DHT22;22694;51.040;3.684;2023-02-26T02:09:33;11.30;71.90
36710;DHT22;22694;51.040;3.684;2023-02-26T02:23:42;11.20;72.30
36710;DHT22;22694;51.040;3.684;2023-02-26T02:29:15;11.20;72.50
36710;DHT22;22694;51.040;3.684;2023-02-26T02:32:35;11.20;72.50
36710;DHT22;22694;51.040;3.684;2023-02-26T02:34:45;11.10;72.50
36710;DHT22;22694;51.040;3.684;2023-02-26T02:37:24;11.10;72.60
36710;DHT22;22694;51.040;3.684;2023-02-26T02:39:56;11.10;72.60
36710;DHT22;22694;51.040;3.684;2023-02-26T02:42:32;11.10;72.70
36710;DHT22;22694;51.040;3.684;2023-02-26T02:50:49;11.10;72.90
36710;DHT22;22694;51.040;3.684;2023-02-26T02:53:26;11.00;73.00
36710;DHT22;22694;51.040;3.684;2023-02-26T02:56:03;11.00;72.90
36710;DHT22;22694;51.040;3.684;2023-02-26T02:58:41;11.00;72.90
36710;DHT22;22694;51.040;3.684;2023-02-26T03:01:09;11.00;73.10
36710;DHT22;22694;51.040;3.684;2023-02-26T03:03:45;11.00;73.30
36710;DHT22;22694;51.040;3.684;2023-02-26T03:06:12;11.00;73.20
36710;DHT22;22694;51.040;3.684;2023-02-26T03:08:40;10.90;73.20
36710;DHT22;22694;51.040;3.684;2023-02-26T03:11:07;10.90;73.30
36710;DHT22;22694;51.040;3.684;2023-02-26T03:13:33;10.90;73.10
36710;DHT22;22694;51.040;3.684;2023-02-26T03:27:49;10.90;73.30
36710;DHT22;22694;51.040;3.684;2023-02-26T03:30:43;10.90;73.20
36710;DHT22;22694;51.040;3.684;2023-02-26T03:36:24;10.80;73.20
36710;DHT22;22694;51.040;3.684;2023-02-26T03:38:58;10.80;73.20
36710;DHT22;22694;51.040;3.684;2023-02-26T03:44:17;10.80;73.10
36710;DHT22;22694;51.040;3.684;2023-02-26T03:46:49;10.80;72.90
36710;DHT22;22694;51.040;3.684;2023-02-26T03:49:22;10.70;73.00
36710;DHT22;22694;51.040;3.684;2023-02-26T03:51:50;10.70;73.10
36710;DHT22;22694;51.040;3.684;2023-02-26T03:54:22;10.70;73.10
36710;DHT22;22694;51.040;3.684;2023-02-26T03:56:50;10.70;72.90
36710;DHT22;22694;51.040;3.684;2023-02-26T03:59:16;10.70;73.00
36710;DHT22;22694;51.040;3.684;2023-02-26T04:02:00;10.60;73.00
36710;DHT22;22694;51.040;3.684;2023-02-26T04:07:39;10.60;73.30
36710;DHT22;22694;51.040;3.684;2023-02-26T04:10:06;10.60;73.40
36710;DHT22;22694;51.040;3.684;2023-02-26T04:12:33;10.60;73.60
36710;DHT22;22694;51.040;3.684;2023-02-26T04:14:58;10.50;73.50
36710;DHT22;22694;51.040;3.684;2023-02-26T04:17:24;10.60;73.60
36710;DHT22;22694;51.040;3.684;2023-02-26T04:19:50;10.50;73.30
36710;DHT22;22694;51.040;3.684;2023-02-26T04:22:15;10.50;73.40
36710;DHT22;22694;51.040;3.684;2023-02-26T04:24:41;10.50;73.30
36710;DHT22;22694;51.040;3.684;2023-02-26T04:27:07;10.50;73.40
36710;DHT22;22694;51.040;3.684;2023-02-26T04:29:32;10.50;73.60
36710;DHT22;22694;51.040;3.684;2023-02-26T04:31:58;10.50;73.50
36710;DHT22;22694;51.040;3.684;2023-02-26T04:34:25;10.50;73.40
36710;DHT22;22694;51.040;3.684;2023-02-26T04:36:50;10.50;73.50
36710;DHT22;22694;51.040;3.684;2023-02-26T04:39:16;10.40;73.50
36710;DHT22;22694;51.040;3.684;2023-02-26T04:41:42;10.40;73.60
36710;DHT22;22694;51.040;3.684;2023-02-26T04:44:07;10.40;73.50
36710;DHT22;22694;51.040;3.684;2023-02-26T04:46:33;10.40;73.50
36710;DHT22;22694;51.040;3.684;2023-02-26T04:48:59;10.40;73.50
36710;DHT22;22694;51.040;3.684;2023-02-26T04:51:24;10.30;73.90
36710;DHT22;22694;51.040;3.684;2023-02-26T04:53:50;10.30;73.50
36710;DHT22;22694;51.040;3.684;2023-02-26T04:56:16;10.30;73.40
36710;DHT22;22694;51.040;3.684;2023-02-26T04:58:41;10.30;73.40
36710;DHT22;22694;51.040;3.684;2023-02-26T05:01:07;10.30;73.50
36710;DHT22;22694;51.040;3.684;2023-02-26T05:03:33;10.30;74.10
36710;DHT22;22694;51.040;3.684;2023-02-26T05:05:58;10.30;73.40
36710;DHT22;22694;51.040;3.684;2023-02-26T05:08:24;10.40;73.40
36710;DHT22;22694;51.040;3.684;2023-02-26T05:10:51;10.20;73.30
36710;DHT22;22694;51.040;3.684;2023-02-26T05:13:18;10.20;73.30
36710;DHT22;22694;51.040;3.684;2023-02-26T05:15:43;10.20;73.40
36710;DHT22;22694;51.040;3.684;2023-02-26T05:18:09;10.50;73.60
36710;DHT22;22694;51.040;3.684;2023-02-26T05:20:35;10.20;73.50
36710;DHT22;22694;51.040;3.684;2023-02-26T05:23:00;10.20;73.30
36710;DHT22;22694;51.040;3.684;2023-02-26T05:25:26;10.20;73.40
36710;DHT22;22694;51.040;3.684;2023-02-26T05:27:52;10.10;73.40
36710;DHT22;22694;51.040;3.684;2023-02-26T05:30:17;10.10;73.40
36710;DHT22;22694;51.040;3.684;2023-02-26T05:32:43;10.10;73.30
36710;DHT22;22694;51.040;3.684;2023-02-26T05:35:09;10.10;73.40
36710;DHT22;22694;51.040;3.684;2023-02-26T05:37:35;10.10;73.70
36710;DHT22;22694;51.040;3.684;2023-02-26T05:40:01;10.10;73.60
36710;DHT22;22694;51.040;3.684;2023-02-26T05:42:27;10.10;73.50
36710;DHT22;22694;51.040;3.684;2023-02-26T05:44:53;10.00;73.40
36710;DHT22;22694;51.040;3.684;2023-02-26T05:47:18;10.00;73.40
36710;DHT22;22694;51.040;3.684;2023-02-26T05:49:44;10.10;73.50
36710;DHT22;22694;51.040;3.684;2023-02-26T05:52:10;10.00;73.50
36710;DHT22;22694;51.040;3.684;2023-02-26T05:54:35;10.00;73.50
36710;DHT22;22694;51.040;3.684;2023-02-26T05:57:01;10.00;73.50
36710;DHT22;22694;51.040;3.684;2023-02-26T05:59:26;10.00;73.40
36710;DHT22;22694;51.040;3.684;2023-02-26T06:01:52;9.90;73.40
36710;DHT22;22694;51.040;3.684;2023-02-26T06:04:18;9.90;73.40
36710;DHT22;22694;51.040;3.684;2023-02-26T06:06:43;9.90;73.60
36710;DHT22;22694;51.040;3.684;2023-02-26T06:09:09;9.90;73.60
36710;DHT22;22694;51.040;3.684;2023-02-26T06:11:35;10.00;73.60
36710;DHT22;22694;51.040;3.684;2023-02-26T06:14:01;10.30;73.70
36710;DHT22;22694;51.040;3.684;2023-02-26T06:16:26;9.90;73.60
36710;DHT22;22694;51.040;3.684;2023-02-26T06:18:52;9.80;73.60
36710;DHT22;22694;51.040;3.684;2023-02-26T06:21:18;9.90;73.60
36710;DHT22;22694;51.040;3.684;2023-02-26T06:23:43;9.80;73.40
36710;DHT22;22694;51.040;3.684;2023-02-26T06:26:10;9.90;73.50
36710;DHT22;22694;51.040;3.684;2023-02-26T06:28:36;9.80;73.50
36710;DHT22;22694;51.040;3.684;2023-02-26T06:31:01;9.80;73.50
36710;DHT22;22694;51.040;3.684;2023-02-26T06:33:27;9.80;73.50
36710;DHT22;22694;51.040;3.684;2023-02-26T06:35:53;9.80;73.50
36710;DHT22;22694;51.040;3.684;2023-02-26T06:38:20;9.90;73.60
36710;DHT22;22694;51.040;3.684;2023-02-26T06:40:46;9.70;73.50
36710;DHT22;22694;51.040;3.684;2023-02-26T06:43:12;9.90;73.70
36710;DHT22;22694;51.040;3.684;2023-02-26T06:45:37;9.70;73.60
36710;DHT22;22694;51.040;3.684;2023-02-26T06:48:03;9.70;73.60
36710;DHT22;22694;51.040;3.684;2023-02-26T06:50:29;9.70;73.60
36710;DHT22;22694;51.040;3.684;2023-02-26T06:52:56;9.70;73.60
36710;DHT22;22694;51.040;3.684;2023-02-26T06:55:22;9.70;73.60
36710;DHT22;22694;51.040;3.684;2023-02-26T06:57:52;9.70;73.60
36710;DHT22;22694;51.040;3.684;2023-02-26T07:00:18;9.70;73.60
36710;DHT22;22694;51.040;3.684;2023-02-26T07:02:44;9.70;73.80
36710;DHT22;22694;51.040;3.684;2023-02-26T07:05:09;9.60;73.90
36710;DHT22;22694;51.040;3.684;2023-02-26T07:07:35;9.60;74.00
36710;DHT22;22694;51.040;3.684;2023-02-26T07:10:01;9.60;74.00
36710;DHT22;22694;51.040;3.684;2023-02-26T07:12:26;9.60;73.90
36710;DHT22;22694;51.040;3.684;2023-02-26T07:14:52;9.60;73.90
36710;DHT22;22694;51.040;3.684;2023-02-26T07:17:17;9.60;74.00
36710;DHT22;22694;51.040;3.684;2023-02-26T07:19:47;9.60;73.90
36710;DHT22;22694;51.040;3.684;2023-02-26T07:22:13;9.60;73.90
36710;DHT22;22694;51.040;3.684;2023-02-26T07:24:39;10.20;74.30
36710;DHT22;22694;51.040;3.684;2023-02-26T07:27:05;9.50;74.00
36710;DHT22;22694;51.040;3.684;2023-02-26T07:29:31;9.60;74.00
36710;DHT22;22694;51.040;3.684;2023-02-26T07:31:56;9.50;74.20
36710;DHT22;22694;51.040;3.684;2023-02-26T07:34:22;9.60;75.90
36710;DHT22;22694;51.040;3.684;2023-02-26T07:36:48;9.70;76.50
36710;DHT22;22694;51.040;3.684;2023-02-26T07:39:13;9.70;75.20
36710;DHT22;22694;51.040;3.684;2023-02-26T07:41:39;9.70;76.50
36710;DHT22;22694;51.040;3.684;2023-02-26T07:44:05;9.90;74.00
36710;DHT22;22694;51.040;3.684;2023-02-26T07:46:30;9.70;73.10
36710;DHT22;22694;51.040;3.684;2023-02-26T07:48:56;9.70;73.00
36710;DHT22;22694;51.040;3.684;2023-02-26T07:51:22;9.60;73.00
36710;DHT22;22694;51.040;3.684;2023-02-26T07:53:47;9.60;72.90
36710;DHT22;22694;51.040;3.684;2023-02-26T07:56:13;9.50;72.90
36710;DHT22;22694;51.040;3.684;2023-02-26T07:58:39;10.10;73.10
36710;DHT22;22694;51.040;3.684;2023-02-26T08:01:04;9.50;72.80
36710;DHT22;22694;51.040;3.684;2023-02-26T08:03:31;9.50;73.10
36710;DHT22;22694;51.040;3.684;2023-02-26T08:05:57;9.50;73.20
36710;DHT22;22694;51.040;3.684;2023-02-26T08:08:25;9.50;73.20
36710;DHT22;22694;51.040;3.684;2023-02-26T08:10:51;9.50;73.20
36710;DHT22;22694;51.040;3.684;2023-02-26T08:13:17;9.50;73.20
36710;DHT22;22694;51.040;3.684;2023-02-26T08:15:42;9.50;73.20
36710;DHT22;22694;51.040;3.684;2023-02-26T08:18:09;9.50;73.40
36710;DHT22;22694;51.040;3.684;2023-02-26T08:20:35;9.50;73.30
36710;DHT22;22694;51.040;3.684;2023-02-26T08:23:01;9.50;73.50
36710;DHT22;22694;51.040;3.684;2023-02-26T08:25:26;9.50;73.60
36710;DHT22;22694;51.040;3.684;2023-02-26T08:27:52;9.60;73.50
36710;DHT22;22694;51.040;3.684;2023-02-26T08:30:18;9.90;73.80
36710;DHT22;22694;51.040;3.684;2023-02-26T08:32:43;9.50;73.80
36710;DHT22;22694;51.040;3.684;2023-02-26T08:35:10;9.60;73.90
36710;DHT22;22694;51.040;3.684;2023-02-26T08:37:37;9.50;73.70
36710;DHT22;22694;51.040;3.684;2023-02-26T08:40:05;9.60;73.80
36710;DHT22;22694;51.040;3.684;2023-02-26T08:42:31;9.60;73.60
36710;DHT22;22694;51.040;3.684;2023-02-26T08:44:57;9.60;73.60
36710;DHT22;22694;51.040;3.684;2023-02-26T08:47:22;9.60;73.40
36710;DHT22;22694;51.040;3.684;2023-02-26T08:49:48;9.60;73.40
36710;DHT22;22694;51.040;3.684;2023-02-26T08:52:14;9.60;73.30
36710;DHT22;22694;51.040;3.684;2023-02-26T08:54:39;9.60;73.30
36710;DHT22;22694;51.040;3.684;2023-02-26T08:57:05;9.60;73.30
36710;DHT22;22694;51.040;3.684;2023-02-26T08:59:31;9.60;73.40
36710;DHT22;22694;51.040;3.684;2023-02-26T09:01:56;10.20;73.70
36710;DHT22;22694;51.040;3.684;2023-02-26T09:04:22;9.80;73.70
36710;DHT22;22694;51.040;3.684;2023-02-26T09:06:48;9.90;73.70
36710;DHT22;22694;51.040;3.684;2023-02-26T09:09:13;9.70;74.20
36710;DHT22;22694;51.040;3.684;2023-02-26T09:11:39;9.70;73.60
36710;DHT22;22694;51.040;3.684;2023-02-26T09:14:05;9.80;73.80
36710;DHT22;22694;51.040;3.684;2023-02-26T09:16:31;9.90;92.00
36710;DHT22;22694;51.040;3.684;2023-02-26T09:18:59;10.50;95.00
36710;DHT22;22694;51.040;3.684;2023-02-26T09:21:25;11.10;94.50
36710;DHT22;22694;51.040;3.684;2023-02-26T09:23:50;11.40;91.70
36710;DHT22;22694;51.040;3.684;2023-02-26T09:26:16;11.30;86.40
36710;DHT22;22694;51.040;3.684;2023-02-26T09:28:42;11.20;81.40
36710;DHT22;22694;51.040;3.684;2023-02-26T09:31:08;11.00;79.00
36710;DHT22;22694;51.040;3.684;2023-02-26T09:33:34;10.90;78.10
36710;DHT22;22694;51.040;3.684;2023-02-26T09:36:00;10.80;77.60
36710;DHT22;22694;51.040;3.684;2023-02-26T09:38:35;10.80;77.20
36710;DHT22;22694;51.040;3.684;2023-02-26T09:41:25;10.70;76.80
36710;DHT22;22694;51.040;3.684;2023-02-26T09:44:31;10.70;76.50
36710;DHT22;22694;51.040;3.684;2023-02-26T09:50:02;10.70;76.10
36710;DHT22;22694;51.040;3.684;2023-02-26T09:55:26;10.70;75.80
36710;DHT22;22694;51.040;3.684;2023-02-26T09:57:58;10.70;75.80
36710;DHT22;22694;51.040;3.684;2023-02-26T10:00:29;10.80;75.80
36710;DHT22;22694;51.040;3.684;2023-02-26T10:09:00;10.90;75.50
36710;DHT22;22694;51.040;3.684;2023-02-26T10:11:42;10.90;75.40
36710;DHT22;22694;51.040;3.684;2023-02-26T10:14:25;10.90;75.30
36710;DHT22;22694;51.040;3.684;2023-02-26T10:16:58;11.00;75.20
36710;DHT22;22694;51.040;3.684;2023-02-26T10:19:37;11.00;75.10
36710;DHT22;22694;51.040;3.684;2023-02-26T10:22:31;11.10;74.90
36710;DHT22;22694;51.040;3.684;2023-02-26T10:25:18;11.10;74.60
36710;DHT22;22694;51.040;3.684;2023-02-26T10:28:24;11.20;74.60
36710;DHT22;22694;51.040;3.684;2023-02-26T10:31:01;11.20;74.50
36710;DHT22;22694;51.040;3.684;2023-02-26T10:33:49;11.30;74.40
36710;DHT22;22694;51.040;3.684;2023-02-26T10:36:34;11.40;74.40
36710;DHT22;22694;51.040;3.684;2023-02-26T10:50:50;11.90;73.70
36710;DHT22;22694;51.040;3.684;2023-02-26T10:53:16;12.00;73.50
36710;DHT22;22694;51.040;3.684;2023-02-26T10:55:51;12.00;73.30
36710;DHT22;22694;51.040;3.684;2023-02-26T10:58:24;12.10;73.20
36710;DHT22;22694;51.040;3.684;2023-02-26T11:00:52;12.20;73.00
36710;DHT22;22694;51.040;3.684;2023-02-26T11:03:38;12.30;72.80
36710;DHT22;22694;51.040;3.684;2023-02-26T11:06:05;12.40;72.70
36710;DHT22;22694;51.040;3.684;2023-02-26T11:08:35;12.50;72.50
36710;DHT22;22694;51.040;3.684;2023-02-26T11:11:04;12.50;72.40
36710;DHT22;22694;51.040;3.684;2023-02-26T11:13:32;12.60;72.30
36710;DHT22;22694;51.040;3.684;2023-02-26T11:16:14;12.70;72.30
36710;DHT22;22694;51.040;3.684;2023-02-26T11:18:49;12.70;72.10
36710;DHT22;22694;51.040;3.684;2023-02-26T11:21:22;12.80;71.90
36710;DHT22;22694;51.040;3.684;2023-02-26T11:24:00;12.80;71.80
36710;DHT22;22694;51.040;3.684;2023-02-26T11:26:30;12.90;71.70
36710;DHT22;22694;51.040;3.684;2023-02-26T11:28:57;13.00;71.60
36710;DHT22;22694;51.040;3.684;2023-02-26T11:31:23;13.00;71.50
36710;DHT22;22694;51.040;3.684;2023-02-26T11:33:59;13.00;71.30
36710;DHT22;22694;51.040;3.684;2023-02-26T11:36:28;13.10;71.20
36710;DHT22;22694;51.040;3.684;2023-02-26T11:39:01;13.10;71.10
36710;DHT22;22694;51.040;3.684;2023-02-26T11:41:28;13.10;70.90
36710;DHT22;22694;51.040;3.684;2023-02-26T11:44:15;13.20;70.90
36710;DHT22;22694;51.040;3.684;2023-02-26T11:46:46;13.20;70.80
36710;DHT22;22694;51.040;3.684;2023-02-26T11:49:15;13.20;70.70
36710;DHT22;22694;51.040;3.684;2023-02-26T11:51:59;13.30;70.60
36710;DHT22;22694;51.040;3.684;2023-02-26T11:54:27;13.30;70.60
36710;DHT22;22694;51.040;3.684;2023-02-26T11:57:01;13.30;70.40
36710;DHT22;22694;51.040;3.684;2023-02-26T11:59:30;13.30;70.40
36710;DHT22;22694;51.040;3.684;2023-02-26T12:02:02;13.40;70.40
36710;DHT22;22694;51.040;3.684;2023-02-26T12:04:28;13.40;70.30
36710;DHT22;22694;51.040;3.684;2023-02-26T12:06:56;13.40;70.30
36710;DHT22;22694;51.040;3.684;2023-02-26T12:09:24;13.40;70.20
36710;DHT22;22694;51.040;3.684;2023-02-26T12:25:58;13.60;70.10
36710;DHT22;22694;51.040;3.684;2023-02-26T12:31:26;13.60;70.10
36710;DHT22;22694;51.040;3.684;2023-02-26T12:36:30;13.60;70.00
36710;DHT22;22694;51.040;3.684;2023-02-26T12:44:47;13.70;69.80
36710;DHT22;22694;51.040;3.684;2023-02-26T12:55:45;13.70;69.60
36710;DHT22;22694;51.040;3.684;2023-02-26T13:11:45;14.00;70.00
36710;DHT22;22694;51.040;3.684;2023-02-26T13:17:40;14.00;69.90
36710;DHT22;22694;51.040;3.684;2023-02-26T13:20:19;14.10;70.00
36710;DHT22;22694;51.040;3.684;2023-02-26T13:22:50;14.10;70.20
36710;DHT22;22694;51.040;3.684;2023-02-26T13:25:49;14.10;70.20
36710;DHT22;22694;51.040;3.684;2023-02-26T13:28:29;14.10;70.50
36710;DHT22;22694;51.040;3.684;2023-02-26T13:31:00;14.10;70.40
36710;DHT22;22694;51.040;3.684;2023-02-26T13:33:30;14.10;70.30
36710;DHT22;22694;51.040;3.684;2023-02-26T13:35:57;14.10;70.20
36710;DHT22;22694;51.040;3.684;2023-02-26T13:41:32;14.20;70.30
36710;DHT22;22694;51.040;3.684;2023-02-26T13:50:18;14.20;70.30
36710;DHT22;22694;51.040;3.684;2023-02-26T13:53:01;14.30;70.30
36710;DHT22;22694;51.040;3.684;2023-02-26T13:55:43;14.30;70.20
36710;DHT22;22694;51.040;3.684;2023-02-26T14:01:16;14.30;70.30
36710;DHT22;22694;51.040;3.684;2023-02-26T14:03:51;14.30;70.30
36710;DHT22;22694;51.040;3.684;2023-02-26T14:08:55;14.30;70.30
36710;DHT22;22694;51.040;3.684;2023-02-26T14:11:33;14.30;70.30
36710;DHT22;22694;51.040;3.684;2023-02-26T14:16:54;14.30;70.40
36710;DHT22;22694;51.040;3.684;2023-02-26T14:19:44;14.30;70.30
36710;DHT22;22694;51.040;3.684;2023-02-26T14:22:35;14.30;70.50
36710;DHT22;22694;51.040;3.684;2023-02-26T14:25:20;14.30;70.40
36710;DHT22;22694;51.040;3.684;2023-02-26T14:27:50;14.30;70.30
36710;DHT22;22694;51.040;3.684;2023-02-26T14:30:34;14.30;71.50
36710;DHT22;22694;51.040;3.684;2023-02-26T14:35:28;14.40;70.90
36710;DHT22;22694;51.040;3.684;2023-02-26T14:38:02;14.30;70.20
36710;DHT22;22694;51.040;3.684;2023-02-26T14:40:34;14.40;78.20
36710;DHT22;22694;51.040;3.684;2023-02-26T14:43:04;14.70;81.00
36710;DHT22;22694;51.040;3.684;2023-02-26T14:45:38;14.90;80.70
36710;DHT22;22694;51.040;3.684;2023-02-26T14:48:16;15.10;80.10
36710;DHT22;22694;51.040;3.684;2023-02-26T14:58:58;15.40;78.00
36710;DHT22;22694;51.040;3.684;2023-02-26T15:01:40;15.50;76.90
36710;DHT22;22694;51.040;3.684;2023-02-26T15:04:27;15.30;73.00
36710;DHT22;22694;51.040;3.684;2023-02-26T15:12:48;14.70;71.60
36710;DHT22;22694;51.040;3.684;2023-02-26T15:23:48;14.30;74.10
36710;DHT22;22694;51.040;3.684;2023-02-26T15:26:22;14.40;72.70
36710;DHT22;22694;51.040;3.684;2023-02-26T15:28:50;14.40;72.20
36710;DHT22;22694;51.040;3.684;2023-02-26T15:31:19;14.30;70.30
36710;DHT22;22694;51.040;3.684;2023-02-26T15:33:49;14.20;69.50
36710;DHT22;22694;51.040;3.684;2023-02-26T15:36:18;14.10;69.60
36710;DHT22;22694;51.040;3.684;2023-02-26T15:39:06;14.00;69.90
36710;DHT22;22694;51.040;3.684;2023-02-26T15:41:34;13.90;69.60
36710;DHT22;22694;51.040;3.684;2023-02-26T15:44:02;13.90;69.20
36710;DHT22;22694;51.040;3.684;2023-02-26T15:46:32;13.80;68.70
36710;DHT22;22694;51.040;3.684;2023-02-26T15:49:04;13.70;68.20
36710;DHT22;22694;51.040;3.684;2023-02-26T15:51:31;13.60;68.00
36710;DHT22;22694;51.040;3.684;2023-02-26T15:53:57;13.60;68.00
36710;DHT22;22694;51.040;3.684;2023-02-26T15:56:30;13.50;67.40
36710;DHT22;22694;51.040;3.684;2023-02-26T15:59:01;13.50;67.20
36710;DHT22;22694;51.040;3.684;2023-02-26T16:01:29;13.50;66.70
36710;DHT22;22694;51.040;3.684;2023-02-26T16:03:59;13.40;66.70
36710;DHT22;22694;51.040;3.684;2023-02-26T16:06:34;13.30;66.80
36710;DHT22;22694;51.040;3.684;2023-02-26T16:09:00;13.40;73.30
36710;DHT22;22694;51.040;3.684;2023-02-26T16:11:33;13.50;69.00
36710;DHT22;22694;51.040;3.684;2023-02-26T16:14:00;13.40;67.00
36710;DHT22;22694;51.040;3.684;2023-02-26T16:16:33;13.30;67.00
36710;DHT22;22694;51.040;3.684;2023-02-26T16:19:00;13.30;64.20
36710;DHT22;22694;51.040;3.684;2023-02-26T16:21:35;13.20;54.60
36710;DHT22;22694;51.040;3.684;2023-02-26T16:24:03;13.00;53.20
36710;DHT22;22694;51.040;3.684;2023-02-26T16:26:36;13.10;67.40
36710;DHT22;22694;51.040;3.684;2023-02-26T16:29:08;13.00;58.70
36710;DHT22;22694;51.040;3.684;2023-02-26T16:31:35;12.90;59.10
36710;DHT22;22694;51.040;3.684;2023-02-26T16:34:06;12.90;59.60
36710;DHT22;22694;51.040;3.684;2023-02-26T16:36:39;12.80;60.80
36710;DHT22;22694;51.040;3.684;2023-02-26T16:41:34;12.70;63.10
36710;DHT22;22694;51.040;3.684;2023-02-26T16:44:03;12.70;63.70
36710;DHT22;22694;51.040;3.684;2023-02-26T16:46:36;12.80;81.50
36710;DHT22;22694;51.040;3.684;2023-02-26T16:49:21;13.30;87.60
36710;DHT22;22694;51.040;3.684;2023-02-26T16:51:49;13.40;80.90
36710;DHT22;22694;51.040;3.684;2023-02-26T16:54:28;13.30;72.80
36710;DHT22;22694;51.040;3.684;2023-02-26T16:56:59;13.20;70.00
36710;DHT22;22694;51.040;3.684;2023-02-26T16:59:37;13.00;67.30
36710;DHT22;22694;51.040;3.684;2023-02-26T17:02:20;12.90;66.50
36710;DHT22;22694;51.040;3.684;2023-02-26T17:04:51;12.80;66.50
36710;DHT22;22694;51.040;3.684;2023-02-26T17:07:34;12.80;66.70
36710;DHT22;22694;51.040;3.684;2023-02-26T17:10:16;12.70;67.00
36710;DHT22;22694;51.040;3.684;2023-02-26T17:12:51;12.60;67.10
36710;DHT22;22694;51.040;3.684;2023-02-26T17:15:29;12.50;67.20
36710;DHT22;22694;51.040;3.684;2023-02-26T17:17:55;12.50;67.40
36710;DHT22;22694;51.040;3.684;2023-02-26T17:20:26;12.40;67.30
36710;DHT22;22694;51.040;3.684;2023-02-26T17:22:53;12.40;67.40
36710;DHT22;22694;51.040;3.684;2023-02-26T17:25:20;12.40;67.50
36710;DHT22;22694;51.040;3.684;2023-02-26T17:27:46;12.30;68.20
36710;DHT22;22694;51.040;3.684;2023-02-26T17:30:17;12.30;67.50
36710;DHT22;22694;51.040;3.684;2023-02-26T17:32:44;12.20;67.40
36710;DHT22;22694;51.040;3.684;2023-02-26T17:35:17;12.20;67.20
36710;DHT22;22694;51.040;3.684;2023-02-26T17:37:44;12.20;67.20
36710;DHT22;22694;51.040;3.684;2023-02-26T17:40:22;12.20;71.10
36710;DHT22;22694;51.040;3.684;2023-02-26T17:42:48;12.30;69.00
36710;DHT22;22694;51.040;3.684;2023-02-26T17:45:15;12.20;70.80
36710;DHT22;22694;51.040;3.684;2023-02-26T17:47:41;12.70;92.10
36710;DHT22;22694;51.040;3.684;2023-02-26T17:52:48;13.10;79.90
36710;DHT22;22694;51.040;3.684;2023-02-26T17:55:14;13.00;74.20
36710;DHT22;22694;51.040;3.684;2023-02-26T17:57:40;13.00;73.20
36710;DHT22;22694;51.040;3.684;2023-02-26T18:00:06;13.20;72.40
36710;DHT22;22694;51.040;3.684;2023-02-26T18:02:33;13.30;71.20
36710;DHT22;22694;51.040;3.684;2023-02-26T18:04:58;13.60;70.10
36710;DHT22;22694;51.040;3.684;2023-02-26T18:07:24;13.80;69.00
36710;DHT22;22694;51.040;3.684;2023-02-26T18:09:50;14.10;68.10
36710;DHT22;22694;51.040;3.684;2023-02-26T18:12:17;14.30;67.20
36710;DHT22;22694;51.040;3.684;2023-02-26T18:14:44;14.50;66.50
36710;DHT22;22694;51.040;3.684;2023-02-26T18:17:17;14.60;65.80
36710;DHT22;22694;51.040;3.684;2023-02-26T18:19:43;14.60;65.30
36710;DHT22;22694;51.040;3.684;2023-02-26T18:22:14;14.70;65.00
36710;DHT22;22694;51.040;3.684;2023-02-26T18:24:40;14.80;64.70
36710;DHT22;22694;51.040;3.684;2023-02-26T18:27:17;15.00;64.30
36710;DHT22;22694;51.040;3.684;2023-02-26T18:29:44;15.10;63.80
36710;DHT22;22694;51.040;3.684;2023-02-26T18:32:21;15.20;63.40
36710;DHT22;22694;51.040;3.684;2023-02-26T18:34:48;15.20;63.00
36710;DHT22;22694;51.040;3.684;2023-02-26T18:37:17;15.20;62.90
36710;DHT22;22694;51.040;3.684;2023-02-26T18:39:44;15.30;62.90
36710;DHT22;22694;51.040;3.684;2023-02-26T18:42:30;15.40;62.70
36710;DHT22;22694;51.040;3.684;2023-02-26T18:44:57;15.60;62.30
36710;DHT22;22694;51.040;3.684;2023-02-26T18:47:22;15.60;61.80
36710;DHT22;22694;51.040;3.684;2023-02-26T18:49:49;15.60;61.50
36710;DHT22;22694;51.040;3.684;2023-02-26T18:52:15;15.60;61.40
36710;DHT22;22694;51.040;3.684;2023-02-26T18:54:41;15.60;61.60
36710;DHT22;22694;51.040;3.684;2023-02-26T18:57:07;15.70;61.60